createdAt,value
2022-09-03T00:02:50.598Z,20.80
2022-09-03T00:07:02.133Z,20.80
2022-09-03T00:11:22.075Z,20.50
2022-09-03T00:15:24.944Z,20.50
2022-09-03T00:19:35.364Z,20.70
2022-09-03T00:23:43.335Z,20.70
2022-09-03T00:27:51.110Z,20.80
2022-09-03T00:31:57.717Z,20.90
2022-09-03T00:36:02.167Z,21.00
2022-09-03T00:40:08.165Z,21.10
2022-09-03T00:44:35.182Z,20.90
2022-09-03T00:49:14.191Z,20.80
2022-09-03T00:53:33.073Z,20.80
2022-09-03T00:58:06.013Z,20.40
2022-09-03T01:02:19.703Z,20.40
2022-09-03T01:06:33.349Z,20.60
2022-09-03T01:10:57.709Z,20.90
2022-09-03T01:15:22.281Z,20.80
2022-09-03T01:19:59.058Z,20.90
2022-09-03T01:24:00.840Z,20.90
2022-09-03T01:28:32.964Z,20.70
2022-09-03T01:32:43.922Z,20.60
2022-09-03T01:37:07.744Z,20.60
2022-09-03T01:41:27.881Z,20.60
2022-09-03T01:45:34.567Z,20.70
2022-09-03T01:49:53.105Z,20.80
2022-09-03T01:54:22.124Z,20.70
2022-09-03T01:58:34.866Z,20.60
2022-09-03T02:02:37.069Z,20.60
2022-09-03T02:06:39.396Z,20.40
2022-09-03T02:10:47.271Z,19.80
2022-09-03T02:14:48.986Z,20.00
2022-09-03T02:18:54.646Z,19.40
2022-09-03T02:22:58.345Z,19.30
2022-09-03T02:27:00.047Z,19.50
2022-09-03T02:31:01.925Z,19.80
2022-09-03T02:35:04.438Z,19.80
2022-09-03T02:39:07.009Z,19.80
2022-09-03T02:43:20.229Z,19.80
2022-09-03T02:47:31.049Z,19.70
2022-09-03T02:51:40.179Z,19.40
2022-09-03T02:55:43.323Z,19.60
2022-09-03T02:59:45.686Z,19.60
2022-09-03T03:03:47.827Z,19.70
2022-09-03T03:07:49.584Z,19.80
2022-09-03T03:11:51.530Z,19.80
2022-09-03T03:16:03.103Z,19.40
2022-09-03T03:20:05.177Z,19.50
2022-09-03T03:24:07.190Z,19.60
2022-09-03T03:28:09.686Z,19.60
2022-09-03T03:32:11.400Z,19.70
2022-09-03T03:36:15.205Z,20.00
2022-09-03T03:40:17.508Z,19.60
2022-09-03T03:44:20.270Z,19.90
2022-09-03T03:48:22.076Z,19.80
2022-09-03T03:52:24.968Z,19.70
2022-09-03T03:56:27.083Z,19.90
2022-09-03T04:00:28.778Z,19.90
2022-09-03T04:04:30.505Z,19.50
2022-09-03T04:08:36.526Z,19.50
2022-09-03T04:12:38.230Z,19.50
2022-09-03T04:16:39.960Z,19.90
2022-09-03T04:20:42.889Z,20.00
2022-09-03T04:24:44.814Z,20.10
2022-09-03T04:28:46.956Z,20.20
2022-09-03T04:32:56.123Z,19.90
2022-09-03T04:37:00.529Z,20.00
2022-09-03T04:41:02.605Z,19.00
2022-09-03T04:45:04.872Z,19.20
2022-09-03T04:49:09.336Z,19.30
2022-09-03T04:53:11.065Z,19.00
2022-09-03T04:57:13.460Z,19.40
2022-09-03T05:01:25.900Z,19.50
2022-09-03T05:05:29.007Z,19.20
2022-09-03T05:09:31.094Z,19.10
2022-09-03T05:13:34.070Z,19.40
2022-09-03T05:17:37.817Z,19.70
2022-09-03T05:21:39.679Z,19.80
2022-09-03T05:25:41.354Z,19.80
2022-09-03T05:29:43.921Z,20.00
2022-09-03T05:33:47.625Z,20.00
2022-09-03T05:37:49.347Z,20.20
2022-09-03T05:41:53.602Z,20.50
2022-09-03T05:46:00.738Z,20.50
2022-09-03T05:50:02.792Z,20.40
2022-09-03T05:54:05.212Z,20.50
2022-09-03T05:58:07.390Z,20.70
2022-09-03T06:02:09.193Z,20.90
2022-09-03T06:06:14.725Z,20.50
2022-09-03T06:10:18.185Z,20.40
2022-09-03T06:14:22.209Z,20.30
2022-09-03T06:18:25.789Z,20.30
2022-09-03T06:22:30.069Z,20.70
2022-09-03T06:26:31.848Z,20.90
2022-09-03T06:30:33.885Z,21.20
2022-09-03T06:34:35.618Z,21.00
2022-09-03T06:38:38.106Z,20.40
2022-09-03T06:42:41.473Z,20.30
2022-09-03T06:46:48.510Z,20.40
2022-09-03T06:50:55.139Z,20.90
2022-09-03T06:54:56.896Z,20.90
2022-09-03T06:59:00.295Z,20.70
2022-09-03T07:03:03.074Z,20.30
2022-09-03T07:07:04.878Z,20.60
2022-09-03T07:11:09.507Z,21.00
2022-09-03T07:15:11.353Z,21.10
2022-09-03T07:19:14.862Z,21.40
2022-09-03T07:23:17.446Z,21.10
2022-09-03T07:27:19.172Z,21.50
2022-09-03T07:31:30.150Z,21.70
2022-09-03T07:35:31.874Z,21.90
2022-09-03T07:39:35.003Z,22.00
2022-09-03T07:43:43.506Z,21.70
2022-09-03T07:47:49.949Z,21.30
2022-09-03T07:51:54.152Z,21.30
2022-09-03T07:56:15.760Z,21.40
2022-09-03T08:00:18.030Z,21.40
2022-09-03T08:04:22.162Z,21.30
2022-09-03T08:08:23.955Z,21.60
2022-09-03T08:12:25.718Z,21.90
2022-09-03T08:16:31.880Z,21.20
2022-09-03T08:20:33.710Z,21.80
2022-09-03T08:24:35.890Z,22.10
2022-09-03T08:28:38.200Z,21.80
2022-09-03T08:32:40.114Z,22.30
2022-09-03T08:36:42.217Z,22.70
2022-09-03T08:40:46.131Z,22.60
2022-09-03T08:44:58.697Z,22.50
2022-09-03T08:49:01.678Z,21.90
2022-09-03T08:53:15.893Z,22.40
2022-09-03T08:57:20.598Z,22.80
2022-09-03T09:01:43.335Z,22.40
2022-09-03T09:05:51.596Z,22.80
2022-09-03T09:10:12.121Z,23.30
2022-09-03T09:14:22.281Z,23.50
2022-09-03T09:18:44.703Z,23.70
2022-09-03T09:23:07.178Z,23.90
2022-09-03T09:27:17.345Z,24.00
2022-09-03T09:31:20.233Z,23.80
2022-09-03T09:35:23.085Z,24.00
2022-09-03T09:39:24.817Z,23.90
2022-09-03T09:43:26.589Z,24.40
2022-09-03T09:47:38.351Z,24.40
2022-09-03T09:51:40.485Z,24.60
2022-09-03T09:56:08.885Z,24.60
2022-09-03T10:00:14.738Z,24.80
2022-09-03T10:04:33.032Z,24.80
2022-09-03T10:08:35.872Z,25.00
2022-09-03T10:13:39.068Z,25.00
2022-09-03T10:17:43.589Z,24.00
2022-09-03T10:22:08.553Z,24.20
2022-09-03T10:26:16.906Z,24.20
2022-09-03T10:30:18.667Z,24.40
2022-09-03T10:34:59.028Z,24.70
2022-09-03T10:39:25.612Z,24.20
2022-09-03T10:43:32.638Z,24.10
2022-09-03T10:47:53.236Z,24.00
2022-09-03T10:52:07.702Z,24.30
2022-09-03T10:56:34.197Z,24.80
2022-09-03T11:00:41.663Z,25.10
2022-09-03T11:05:16.302Z,24.70
2022-09-03T11:09:28.152Z,24.90
2022-09-03T11:13:56.155Z,25.20
2022-09-03T11:18:20.837Z,25.10
2022-09-03T11:22:23.606Z,25.30
2022-09-03T11:26:27.897Z,25.50
2022-09-03T11:30:37.776Z,25.50
2022-09-03T11:34:51.669Z,25.50
2022-09-03T11:38:53.524Z,25.40
2022-09-03T11:43:29.003Z,24.70
2022-09-03T11:47:44.514Z,25.30
2022-09-03T11:51:59.313Z,25.90
2022-09-03T11:56:02.228Z,26.00
2022-09-03T12:00:24.927Z,26.20
2022-09-03T12:04:50.285Z,26.50
2022-09-03T12:09:32.672Z,26.10
2022-09-03T12:13:46.369Z,26.50
2022-09-03T12:18:17.708Z,26.40
2022-09-03T12:22:21.679Z,26.40
2022-09-03T12:26:26.184Z,26.10
2022-09-03T12:30:30.254Z,25.90
2022-09-03T12:34:32.456Z,25.70
2022-09-03T12:39:00.687Z,25.80
2022-09-03T12:47:42.028Z,25.40
2022-09-03T12:51:52.530Z,25.40
2022-09-03T12:55:59.105Z,25.60
2022-09-03T13:00:08.561Z,22.90
2022-09-03T13:04:15.239Z,22.10
2022-09-03T13:08:33.188Z,21.20
2022-09-03T13:12:43.839Z,21.10
2022-09-03T13:16:49.611Z,21.50
2022-09-03T13:21:12.783Z,21.30
2022-09-03T13:25:20.773Z,20.00
2022-09-03T13:29:28.321Z,20.30
2022-09-03T13:33:50.010Z,20.20
2022-09-03T13:38:14.829Z,20.40
2022-09-03T13:42:24.145Z,20.00
2022-09-03T13:46:41.538Z,20.20
2022-09-03T13:50:59.868Z,21.40
2022-09-03T13:55:34.257Z,22.40
2022-09-03T13:59:56.800Z,22.20
2022-09-03T14:04:02.696Z,22.00
2022-09-03T14:08:26.392Z,23.10
2022-09-03T14:12:53.275Z,22.60
2022-09-03T14:17:01.916Z,22.20
2022-09-03T14:21:06.447Z,21.90
2022-09-03T14:25:23.248Z,22.70
2022-09-03T14:29:31.580Z,21.90
2022-09-03T14:33:42.333Z,22.20
2022-09-03T14:38:02.728Z,22.40
2022-09-03T14:42:07.398Z,23.20
2022-09-03T14:46:12.241Z,23.40
2022-09-03T14:50:40.542Z,23.60
2022-09-03T14:55:02.388Z,23.30
2022-09-03T14:59:18.937Z,23.00
2022-09-03T15:03:32.648Z,23.60
2022-09-03T15:07:42.753Z,23.20
2022-09-03T15:11:57.440Z,23.70
2022-09-03T15:16:02.559Z,23.50
2022-09-03T15:20:31.329Z,23.50
2022-09-03T15:24:53.491Z,23.70
2022-09-03T15:29:15.621Z,24.00
2022-09-03T15:33:31.146Z,24.10
2022-09-03T15:37:38.633Z,24.20
2022-09-03T15:42:06.748Z,24.20
2022-09-03T15:46:33.065Z,24.30
2022-09-03T15:50:52.756Z,24.30
2022-09-03T15:55:14.095Z,24.00
2022-09-03T15:59:25.690Z,23.50
2022-09-03T16:03:47.194Z,23.80
2022-09-03T16:08:06.024Z,23.30
2022-09-03T16:12:26.513Z,23.60
2022-09-03T16:16:42.538Z,24.00
2022-09-03T16:21:01.095Z,24.10
2022-09-03T16:25:14.510Z,23.80
2022-09-03T16:29:19.214Z,23.70
2022-09-03T16:33:30.144Z,24.00
2022-09-03T16:37:54.745Z,23.70
2022-09-03T16:42:13.769Z,24.10
2022-09-03T16:46:53.496Z,24.10
2022-09-03T16:51:01.670Z,24.00
2022-09-03T16:55:21.391Z,24.00
2022-09-03T16:59:26.088Z,24.10
2022-09-03T17:03:48.289Z,24.30
2022-09-03T17:08:11.409Z,23.80
2022-09-03T17:12:41.971Z,24.10
2022-09-03T17:16:53.298Z,24.30
2022-09-03T17:21:22.172Z,24.40
2022-09-03T17:25:48.244Z,23.90
2022-09-03T17:30:09.948Z,23.40
2022-09-03T17:34:20.524Z,23.20
2022-09-03T17:38:46.909Z,23.60
2022-09-03T17:42:56.898Z,23.60
2022-09-03T17:47:12.318Z,23.40
2022-09-03T17:51:53.642Z,23.10
2022-09-03T17:56:11.664Z,23.10
2022-09-03T18:00:29.617Z,23.00
2022-09-03T18:04:42.835Z,23.10
2022-09-03T18:09:01.006Z,23.30
2022-09-03T18:13:15.049Z,23.40
2022-09-03T18:17:26.837Z,23.30
2022-09-03T18:21:49.776Z,23.30
2022-09-03T18:26:22.236Z,23.50
2022-09-03T18:30:43.353Z,23.60
2022-09-03T18:35:07.535Z,23.50
2022-09-03T18:39:43.545Z,23.50
2022-09-03T18:44:22.105Z,23.50
2022-09-03T18:49:22.471Z,23.50
2022-09-03T18:53:42.982Z,23.00
2022-09-03T18:58:25.973Z,22.40
2022-09-03T19:03:10.990Z,22.10
2022-09-03T19:08:04.121Z,22.40
2022-09-03T19:12:58.923Z,22.60
2022-09-03T19:17:37.597Z,22.60
2022-09-03T19:22:12.401Z,22.20
2022-09-03T19:27:00.428Z,22.10
2022-09-03T19:31:39.482Z,22.30
2022-09-03T19:36:32.395Z,22.00
2022-09-03T19:41:35.882Z,21.90
2022-09-03T19:46:40.560Z,21.80
2022-09-03T19:51:09.341Z,22.10
2022-09-03T19:55:33.818Z,22.20
2022-09-03T19:59:58.783Z,22.10
2022-09-03T20:04:29.369Z,22.20
2022-09-03T20:08:51.165Z,21.90
2022-09-03T20:13:04.987Z,21.40
2022-09-03T20:17:35.221Z,21.70
2022-09-03T20:21:56.415Z,21.90
2022-09-03T20:26:20.084Z,21.20
2022-09-03T20:30:42.163Z,20.90
2022-09-03T20:34:46.887Z,21.10
2022-09-03T20:39:18.670Z,21.50
2022-09-03T20:43:49.335Z,21.60
2022-09-03T20:48:01.143Z,21.60
2022-09-03T20:52:34.909Z,21.80
2022-09-03T20:56:46.574Z,21.80
2022-09-03T21:01:03.395Z,21.90
2022-09-03T21:05:08.172Z,21.10
2022-09-03T21:09:42.027Z,21.40
2022-09-03T21:14:05.214Z,21.60
2022-09-03T21:19:03.384Z,21.20
2022-09-03T21:23:11.382Z,21.30
2022-09-03T21:27:24.202Z,21.00
2022-09-03T21:31:33.129Z,21.20
2022-09-03T21:36:17.609Z,21.40
2022-09-03T21:40:24.452Z,21.00
2022-09-03T21:44:39.076Z,20.30
2022-09-03T21:48:52.845Z,20.40
2022-09-03T21:53:09.411Z,20.30
2022-09-03T21:57:46.963Z,20.50
2022-09-03T22:02:04.718Z,20.80
2022-09-03T22:06:23.789Z,20.60
2022-09-03T22:10:50.481Z,20.40
2022-09-03T22:14:55.595Z,20.90
2022-09-03T22:18:57.499Z,21.10
2022-09-03T22:23:11.811Z,21.00
2022-09-03T22:27:38.426Z,20.70
2022-09-03T22:31:59.859Z,20.30
2022-09-03T22:36:16.254Z,20.50
2022-09-03T22:40:26.403Z,20.60
2022-09-03T22:44:49.203Z,20.60
2022-09-03T22:48:50.938Z,20.40
2022-09-03T22:53:07.812Z,19.50
2022-09-03T22:57:12.999Z,20.20
2022-09-03T23:01:24.379Z,20.40
2022-09-03T23:05:45.363Z,20.40
2022-09-03T23:09:55.103Z,20.30
2022-09-03T23:14:08.222Z,20.30
2022-09-03T23:18:15.280Z,19.80
2022-09-03T23:22:38.761Z,19.50
2022-09-03T23:26:47.580Z,20.10
2022-09-03T23:30:49.621Z,20.50
2022-09-03T23:34:51.390Z,19.90
2022-09-03T23:39:15.534Z,20.30
2022-09-03T23:43:40.290Z,20.70
2022-09-03T23:48:03.449Z,20.40
2022-09-03T23:52:29.201Z,20.30
2022-09-03T23:56:53.517Z,20.10
